createdAt,value
2023-04-15T00:01:59.892Z,2.28
2023-04-15T00:04:28.399Z,2.20
2023-04-15T00:06:55.980Z,2.53
2023-04-15T00:09:23.916Z,2.50
2023-04-15T00:11:52.173Z,2.47
2023-04-15T00:14:21.041Z,3.03
2023-04-15T00:16:50.049Z,2.72
2023-04-15T00:19:17.553Z,2.47
2023-04-15T00:21:45.072Z,2.60
2023-04-15T00:24:12.675Z,2.58
2023-04-15T00:26:40.540Z,2.45
2023-04-15T00:29:08.172Z,2.50
2023-04-15T00:31:36.934Z,2.38
2023-04-15T00:36:33.786Z,2.60
2023-04-15T00:39:01.552Z,2.30
2023-04-15T00:41:29.698Z,2.58
2023-04-15T00:43:57.203Z,2.65
2023-04-15T00:46:25.952Z,2.33
2023-04-15T00:51:23.364Z,1.92
2023-04-15T00:53:51.871Z,2.15
2023-04-15T00:56:21.750Z,2.40
2023-04-15T00:58:49.268Z,2.10
2023-04-15T01:01:16.972Z,2.33
2023-04-15T01:03:44.984Z,2.38
2023-04-15T01:06:14.962Z,2.42
2023-04-15T01:08:42.469Z,2.60
2023-04-15T01:11:11.531Z,2.45
2023-04-15T01:13:39.298Z,2.20
2023-04-15T01:16:08.636Z,2.58
2023-04-15T01:18:38.574Z,3.22
2023-04-15T01:21:06.919Z,2.25
2023-04-15T01:23:38.585Z,2.60
2023-04-15T01:26:09.230Z,2.42
2023-04-15T01:28:37.273Z,2.13
2023-04-15T01:31:09.545Z,2.35
2023-04-15T01:33:37.467Z,2.22
2023-04-15T01:36:06.095Z,2.78
2023-04-15T01:38:34.156Z,2.20
2023-04-15T01:41:02.011Z,3.30
2023-04-15T01:43:30.831Z,2.63
2023-04-15T01:48:26.048Z,2.67
2023-04-15T01:50:57.444Z,2.60
2023-04-15T01:53:25.702Z,2.50
2023-04-15T01:55:53.613Z,2.55
2023-04-15T01:58:22.450Z,2.97
2023-04-15T02:03:19.068Z,2.70
2023-04-15T02:05:46.604Z,2.22
2023-04-15T02:08:14.443Z,1.90
2023-04-15T02:10:41.976Z,2.70
2023-04-15T02:13:09.424Z,2.42
2023-04-15T02:15:37.062Z,2.67
2023-04-15T02:18:06.648Z,2.90
2023-04-15T02:20:35.012Z,2.42
2023-04-15T02:23:03.016Z,2.30
2023-04-15T02:25:30.527Z,2.70
2023-04-15T02:27:58.677Z,2.53
2023-04-15T02:30:27.148Z,2.20
2023-04-15T02:32:54.762Z,2.40
2023-04-15T02:35:25.716Z,2.33
2023-04-15T02:37:53.217Z,2.60
2023-04-15T02:40:20.816Z,2.42
2023-04-15T02:42:48.366Z,2.05
2023-04-15T02:45:16.103Z,2.33
2023-04-15T02:47:44.365Z,1.75
2023-04-15T02:50:13.133Z,2.17
2023-04-15T02:52:42.562Z,2.67
2023-04-15T02:55:10.507Z,2.08
2023-04-15T02:57:39.115Z,2.63
2023-04-15T03:00:09.574Z,3.17
2023-04-15T03:02:38.392Z,2.97
2023-04-15T03:05:07.248Z,3.13
2023-04-15T03:07:34.723Z,3.22
2023-04-15T03:10:03.592Z,2.92
2023-04-15T03:14:58.596Z,2.83
2023-04-15T03:17:26.148Z,3.10
2023-04-15T03:19:53.610Z,2.88
2023-04-15T03:22:21.308Z,2.58
2023-04-15T03:24:48.804Z,2.47
2023-04-15T03:27:17.734Z,3.42
2023-04-15T03:32:12.807Z,2.97
2023-04-15T03:34:40.256Z,2.60
2023-04-15T03:37:07.788Z,2.55
2023-04-15T03:39:35.648Z,2.92
2023-04-15T03:42:03.692Z,2.95
2023-04-15T03:44:32.746Z,3.40
2023-04-15T03:47:00.326Z,3.38
2023-04-15T03:49:27.807Z,3.08
2023-04-15T03:51:55.693Z,3.33
2023-04-15T03:54:23.183Z,3.03
2023-04-15T03:56:50.726Z,3.47
2023-04-15T03:59:18.217Z,2.92
2023-04-15T04:01:47.277Z,3.13
2023-04-15T04:04:15.024Z,2.53
2023-04-15T04:06:42.662Z,3.35
2023-04-15T04:09:10.457Z,3.35
2023-04-15T04:11:38.532Z,3.60
2023-04-15T04:14:06.078Z,2.92
2023-04-15T04:16:33.593Z,3.13
2023-04-15T04:19:03.019Z,2.72
2023-04-15T04:21:31.211Z,3.67
2023-04-15T04:23:58.928Z,3.30
2023-04-15T04:26:29.185Z,3.60
2023-04-15T04:28:56.632Z,3.72
2023-04-15T04:31:24.218Z,3.92
2023-04-15T04:33:51.748Z,2.90
2023-04-15T04:36:20.665Z,3.20
2023-04-15T04:38:48.137Z,3.45
2023-04-15T04:41:16.297Z,1.92
2023-04-15T04:43:43.771Z,4.22
2023-04-15T04:46:11.953Z,3.67
2023-04-15T04:48:39.577Z,4.07
2023-04-15T04:51:07.658Z,3.08
2023-04-15T04:53:37.352Z,4.32
2023-04-15T04:56:05.313Z,4.53
2023-04-15T04:58:32.809Z,4.40
2023-04-15T05:01:00.394Z,3.88
2023-04-15T05:03:28.403Z,4.55
2023-04-15T05:05:55.957Z,5.03
2023-04-15T05:08:23.409Z,5.45
2023-04-15T05:10:52.186Z,3.53
2023-04-15T05:13:21.495Z,4.28
2023-04-15T05:15:48.964Z,4.82
2023-04-15T05:18:16.498Z,4.07
2023-04-15T05:20:44.088Z,3.67
2023-04-15T05:23:11.567Z,3.40
2023-04-15T05:25:39.037Z,3.95
2023-04-15T05:28:08.011Z,5.00
2023-04-15T05:30:35.532Z,5.85
2023-04-15T05:33:03.055Z,4.38
2023-04-15T05:35:30.803Z,4.50
2023-04-15T05:37:58.318Z,4.43
2023-04-15T05:40:25.870Z,4.20
2023-04-15T05:42:53.323Z,4.78
2023-04-15T05:45:22.322Z,4.03
2023-04-15T05:47:50.853Z,4.10
2023-04-15T05:50:18.533Z,4.57
2023-04-15T05:52:46.210Z,4.95
2023-04-15T05:55:14.234Z,5.47
2023-04-15T05:57:41.677Z,5.22
2023-04-15T06:00:10.176Z,5.07
2023-04-15T06:02:39.239Z,5.05
2023-04-15T06:05:09.829Z,5.15
2023-04-15T06:07:37.633Z,4.20
2023-04-15T06:10:05.839Z,4.57
2023-04-15T06:12:33.370Z,4.82
2023-04-15T06:15:00.831Z,4.18
2023-04-15T06:17:28.355Z,3.97
2023-04-15T06:19:57.190Z,3.95
2023-04-15T06:24:52.954Z,6.32
2023-04-15T06:27:20.685Z,6.93
2023-04-15T06:29:48.107Z,8.18
2023-04-15T06:32:15.561Z,6.00
2023-04-15T06:34:43.010Z,5.70
2023-04-15T06:37:16.004Z,7.85
2023-04-15T06:39:44.535Z,5.03
2023-04-15T06:42:12.342Z,6.05
2023-04-15T06:44:39.983Z,6.03
2023-04-15T06:47:07.504Z,6.05
2023-04-15T06:49:34.967Z,5.60
2023-04-15T06:52:02.743Z,5.32
2023-04-15T06:54:31.543Z,5.80
2023-04-15T06:56:59.191Z,4.25
2023-04-15T06:59:27.258Z,3.78
2023-04-15T07:01:54.823Z,4.03
2023-04-15T07:04:22.316Z,5.10
2023-04-15T07:06:49.921Z,5.72
2023-04-15T07:09:17.383Z,4.95
2023-04-15T07:11:46.257Z,4.80
2023-04-15T07:21:35.719Z,3.63
2023-04-15T07:24:03.405Z,4.68
2023-04-15T07:26:30.847Z,3.90
2023-04-15T07:28:59.860Z,2.75
2023-04-15T07:31:27.784Z,3.63
2023-04-15T07:33:55.328Z,3.63
2023-04-15T07:36:23.218Z,3.83
2023-04-15T07:38:50.676Z,3.95
2023-04-15T07:41:18.458Z,3.42
2023-04-15T07:43:45.955Z,3.33
2023-04-15T07:46:14.782Z,3.00
2023-04-15T07:48:42.625Z,3.85
2023-04-15T07:51:10.786Z,2.40
2023-04-15T07:53:38.531Z,1.80
2023-04-15T07:56:06.965Z,3.92
2023-04-15T07:58:34.414Z,2.92
2023-04-15T08:01:01.992Z,2.55
2023-04-15T08:03:30.875Z,3.70
2023-04-15T08:05:58.681Z,2.58
2023-04-15T08:08:26.284Z,3.42
2023-04-15T08:10:53.841Z,3.28
2023-04-15T08:13:21.700Z,3.05
2023-04-15T08:16:19.178Z,2.45
2023-04-15T08:18:48.567Z,2.63
2023-04-15T08:21:16.624Z,2.90
2023-04-15T08:23:44.637Z,3.58
2023-04-15T08:26:12.761Z,3.72
2023-04-15T08:28:42.025Z,2.13
2023-04-15T08:31:09.687Z,3.13
2023-04-15T08:33:37.321Z,3.60
2023-04-15T08:36:07.454Z,3.28
2023-04-15T08:38:35.054Z,5.60
2023-04-15T08:41:08.237Z,3.40
2023-04-15T08:43:38.832Z,2.83
2023-04-15T08:46:06.976Z,2.17
2023-04-15T08:48:35.668Z,1.75
2023-04-15T08:51:03.628Z,1.73
2023-04-15T08:53:32.553Z,1.65
2023-04-15T08:56:05.088Z,2.00
2023-04-15T08:58:33.431Z,1.10
2023-04-15T09:01:01.501Z,1.73
2023-04-15T09:03:29.824Z,1.27
2023-04-15T09:05:58.395Z,2.35
2023-04-15T09:08:25.916Z,2.15
2023-04-15T09:10:54.838Z,2.35
2023-04-15T09:18:29.069Z,1.33
2023-04-15T09:20:56.939Z,1.52
2023-04-15T09:23:24.492Z,1.00
2023-04-15T09:25:51.956Z,0.65
2023-04-15T09:28:27.250Z,1.15
2023-04-15T09:30:57.535Z,1.50
2023-04-15T09:33:26.161Z,1.38
2023-04-15T09:36:01.747Z,1.00
2023-04-15T09:38:29.568Z,1.30
2023-04-15T09:40:57.089Z,1.10
2023-04-15T09:43:39.186Z,1.23
2023-04-15T09:46:06.843Z,0.73
2023-04-15T09:48:34.411Z,1.40
2023-04-15T09:51:02.928Z,2.33
2023-04-15T09:53:31.893Z,1.08
2023-04-15T09:56:02.278Z,0.70
2023-04-15T09:58:33.529Z,0.77
2023-04-15T10:01:02.391Z,1.42
2023-04-15T10:06:00.246Z,0.82
2023-04-15T10:08:30.013Z,1.30
2023-04-15T10:10:57.970Z,1.50
2023-04-15T10:13:28.375Z,0.70
2023-04-15T10:16:00.380Z,0.73
2023-04-15T10:18:29.148Z,1.17
2023-04-15T10:20:56.908Z,1.13
2023-04-15T10:23:25.629Z,0.98
2023-04-15T10:25:54.638Z,1.20
2023-04-15T10:28:23.485Z,0.80
2023-04-15T10:33:22.769Z,0.90
2023-04-15T10:35:51.651Z,0.70
2023-04-15T10:38:36.308Z,0.60
2023-04-15T10:41:20.123Z,0.90
2023-04-15T10:43:52.752Z,0.77
2023-04-15T10:46:23.065Z,0.77
2023-04-15T10:48:53.092Z,0.73
2023-04-15T10:51:31.849Z,1.63
2023-04-15T10:54:01.005Z,1.10
2023-04-15T10:56:29.968Z,1.23
2023-04-15T10:59:00.178Z,1.13
2023-04-15T11:01:52.788Z,1.23
2023-04-15T11:08:03.038Z,1.05
2023-04-15T11:11:33.810Z,1.58
2023-04-15T11:14:43.292Z,1.60
2023-04-15T11:21:32.942Z,1.65
2023-04-15T11:25:33.384Z,1.83
2023-04-15T11:35:51.165Z,1.20
2023-04-15T11:45:22.380Z,1.55
2023-04-15T11:52:00.292Z,1.40
2023-04-15T12:10:20.876Z,1.00
2023-04-15T12:13:18.947Z,1.33
2023-04-15T12:16:19.641Z,1.48
2023-04-15T12:22:48.634Z,1.30
2023-04-15T12:29:43.468Z,1.83
2023-04-15T12:32:43.432Z,1.60
2023-04-15T12:36:29.793Z,2.05
2023-04-15T12:40:17.463Z,1.75
2023-04-15T12:43:15.156Z,1.45
2023-04-15T12:46:34.308Z,1.20
2023-04-15T12:50:06.665Z,1.35
2023-04-15T12:53:13.909Z,1.70
2023-04-15T12:56:28.079Z,1.05
2023-04-15T13:05:33.345Z,1.95
2023-04-15T13:08:40.438Z,2.58
2023-04-15T13:18:06.845Z,2.13
2023-04-15T13:24:47.878Z,1.60
2023-04-15T13:27:46.076Z,0.63
2023-04-15T13:31:03.227Z,1.35
2023-04-15T13:37:22.286Z,2.13
2023-04-15T13:46:36.258Z,2.60
2023-04-15T13:49:41.347Z,2.28
2023-04-15T13:52:56.114Z,1.25
2023-04-15T13:56:05.670Z,1.83
2023-04-15T13:59:18.073Z,2.90
2023-04-15T14:02:32.974Z,1.42
2023-04-15T14:05:31.663Z,2.08
2023-04-15T14:09:00.525Z,1.90
2023-04-15T14:12:09.751Z,2.17
2023-04-15T14:15:03.913Z,3.95
2023-04-15T14:17:55.282Z,2.30
2023-04-15T14:21:07.753Z,1.40
2023-04-15T14:27:21.170Z,1.52
2023-04-15T14:30:27.334Z,1.90
2023-04-15T14:33:51.227Z,1.85
2023-04-15T14:44:02.172Z,1.60
2023-04-15T14:47:27.043Z,1.92
2023-04-15T14:59:51.817Z,2.00
2023-04-15T15:03:20.841Z,1.85
2023-04-15T15:13:35.317Z,1.85
2023-04-15T15:19:37.278Z,2.10
2023-04-15T15:26:17.343Z,2.40
2023-04-15T15:28:51.634Z,2.13
2023-04-15T15:31:19.161Z,1.75
2023-04-15T15:33:46.711Z,1.65
2023-04-15T15:36:15.735Z,1.83
2023-04-15T15:38:56.211Z,1.55
2023-04-15T15:41:23.916Z,2.30
2023-04-15T15:43:51.409Z,2.67
2023-04-15T15:46:19.110Z,2.10
2023-04-15T15:48:46.718Z,1.80
2023-04-15T15:51:22.052Z,3.25
2023-04-15T15:57:12.032Z,5.03
2023-04-15T15:59:41.183Z,9.13
2023-04-15T16:02:13.054Z,3.20
2023-04-15T16:04:56.696Z,3.33
2023-04-15T16:07:28.395Z,3.15
2023-04-15T16:10:22.951Z,1.88
2023-04-15T16:12:50.557Z,2.13
2023-04-15T16:15:18.071Z,2.95
2023-04-15T16:17:45.785Z,3.58
2023-04-15T16:20:13.345Z,3.58
2023-04-15T16:22:42.195Z,2.55
2023-04-15T16:25:10.529Z,2.38
2023-04-15T16:27:50.348Z,2.63
2023-04-15T16:30:25.086Z,2.85
2023-04-15T16:32:53.072Z,2.92
2023-04-15T16:35:20.957Z,2.58
2023-04-15T16:37:49.799Z,3.10
2023-04-15T16:42:45.324Z,2.35
2023-04-15T16:45:12.851Z,4.35
2023-04-15T16:47:40.454Z,3.58
2023-04-15T16:50:11.541Z,4.40
2023-04-15T16:52:38.988Z,3.42
2023-04-15T16:55:08.326Z,3.65
2023-04-15T16:57:53.090Z,3.55
2023-04-15T17:00:23.805Z,3.55
2023-04-15T17:02:51.600Z,4.03
2023-04-15T17:05:19.438Z,3.35
2023-04-15T17:07:46.942Z,3.10
2023-04-15T17:10:16.214Z,3.30
2023-04-15T17:12:43.782Z,2.70
2023-04-15T17:15:11.404Z,3.00
2023-04-15T17:17:39.015Z,3.45
2023-04-15T17:20:07.703Z,2.25
2023-04-15T17:22:35.242Z,3.22
2023-04-15T17:25:03.111Z,3.17
2023-04-15T17:27:32.179Z,3.25
2023-04-15T17:29:59.675Z,4.38
2023-04-15T17:32:31.541Z,3.35
2023-04-15T17:34:59.288Z,2.65
2023-04-15T17:37:26.859Z,3.38
2023-04-15T17:39:54.361Z,2.17
2023-04-15T17:42:22.891Z,3.55
2023-04-15T17:44:51.732Z,4.00
2023-04-15T17:47:19.223Z,4.10
2023-04-15T17:49:47.185Z,3.00
2023-04-15T17:52:14.775Z,3.33
2023-04-15T17:54:42.240Z,2.58
2023-04-15T17:57:10.176Z,1.67
2023-04-15T17:59:37.816Z,2.83
2023-04-15T18:02:06.746Z,2.88
2023-04-15T18:04:34.406Z,3.20
2023-04-15T18:07:01.990Z,3.00
2023-04-15T18:09:31.790Z,2.60
2023-04-15T18:11:59.249Z,2.00
2023-04-15T18:14:34.212Z,3.30
2023-04-15T18:17:02.923Z,4.78
2023-04-15T18:19:32.025Z,4.78
2023-04-15T18:22:00.835Z,3.83
2023-04-15T18:24:28.570Z,3.40
2023-04-15T18:26:56.311Z,3.10
2023-04-15T18:29:23.941Z,3.88
2023-04-15T18:31:51.533Z,3.33
2023-04-15T18:34:19.115Z,2.63
2023-04-15T18:36:48.053Z,2.70
2023-04-15T18:39:16.865Z,2.80
2023-04-15T18:44:11.630Z,4.13
2023-04-15T18:46:39.154Z,2.80
2023-04-15T18:49:07.187Z,3.42
2023-04-15T18:51:34.959Z,4.00
2023-04-15T18:54:03.798Z,5.18
2023-04-15T18:56:31.589Z,3.50
2023-04-15T18:59:25.405Z,3.85
2023-04-15T19:01:46.797Z,3.88
2023-04-15T19:04:14.636Z,3.65
2023-04-15T19:06:42.240Z,3.15
2023-04-15T19:09:11.209Z,3.22
2023-04-15T19:11:38.980Z,2.08
2023-04-15T19:14:06.578Z,2.58
2023-04-15T19:16:34.167Z,2.78
2023-04-15T19:19:01.834Z,2.67
2023-04-15T19:21:32.577Z,2.90
2023-04-15T19:24:01.148Z,2.72
2023-04-15T19:26:30.098Z,2.85
2023-04-15T19:28:58.841Z,2.47
2023-04-15T19:33:54.000Z,2.75
2023-04-15T19:36:21.739Z,3.53
2023-04-15T19:38:49.200Z,2.55
2023-04-15T19:41:16.784Z,1.88
2023-04-15T19:43:45.752Z,2.20
2023-04-15T19:46:13.680Z,2.65
2023-04-15T19:48:41.225Z,2.75
2023-04-15T19:51:08.733Z,2.28
2023-04-15T19:53:36.447Z,1.90
2023-04-15T19:56:04.209Z,2.60
2023-04-15T19:58:32.445Z,1.58
2023-04-15T20:01:02.217Z,2.90
2023-04-15T20:03:30.147Z,2.30
2023-04-15T20:05:57.953Z,1.80
2023-04-15T20:08:25.449Z,2.00
2023-04-15T20:10:53.174Z,2.40
2023-04-15T20:13:20.637Z,1.63
2023-04-15T20:15:48.092Z,2.28
2023-04-15T20:18:16.995Z,2.63
2023-04-15T20:20:44.717Z,2.40
2023-04-15T20:23:12.338Z,2.00
2023-04-15T20:25:39.885Z,2.65
2023-04-15T20:28:07.422Z,2.72
2023-04-15T20:30:35.353Z,2.30
2023-04-15T20:33:02.946Z,2.40
2023-04-15T20:35:34.752Z,2.40
2023-04-15T20:38:02.658Z,3.00
2023-04-15T20:40:30.253Z,3.08
2023-04-15T20:42:57.816Z,2.50
2023-04-15T20:45:25.375Z,2.58
2023-04-15T20:47:54.607Z,2.80
2023-04-15T20:50:22.269Z,2.53
2023-04-15T20:52:51.114Z,2.58
2023-04-15T20:57:46.359Z,2.22
2023-04-15T21:00:14.182Z,2.72
2023-04-15T21:02:41.878Z,2.58
2023-04-15T21:05:09.870Z,2.88
2023-04-15T21:07:37.323Z,2.83
2023-04-15T21:10:07.286Z,2.60
2023-04-15T21:12:34.734Z,3.05
2023-04-15T21:15:02.237Z,2.70
2023-04-15T21:17:29.922Z,3.25
2023-04-15T21:19:57.558Z,4.43
2023-04-15T21:22:25.160Z,3.42
2023-04-15T21:24:52.771Z,3.55
2023-04-15T21:27:21.761Z,2.50
2023-04-15T21:29:49.249Z,6.47
2023-04-15T21:32:17.011Z,7.35
2023-04-15T21:34:44.749Z,4.88
2023-04-15T21:37:12.289Z,4.28
2023-04-15T21:39:39.797Z,3.75
2023-04-15T21:42:07.333Z,11.05
2023-04-15T21:44:36.161Z,14.93
2023-04-15T21:49:31.854Z,5.35
2023-04-15T21:52:00.966Z,3.40
2023-04-15T21:54:28.849Z,6.85
2023-04-15T21:56:56.914Z,5.63
2023-04-15T21:59:24.577Z,7.93
2023-04-15T22:01:53.596Z,6.43
2023-04-15T22:04:21.357Z,4.30
2023-04-15T22:06:48.935Z,5.57
2023-04-15T22:09:16.563Z,4.72
2023-04-15T22:11:44.373Z,4.80
2023-04-15T22:14:12.133Z,3.90
2023-04-15T22:16:39.591Z,3.58
2023-04-15T22:19:08.923Z,6.47
2023-04-15T22:21:36.473Z,4.72
2023-04-15T22:24:33.751Z,3.67
2023-04-15T22:26:51.584Z,2.95
2023-04-15T22:29:19.056Z,3.58
2023-04-15T22:31:46.777Z,3.60
2023-04-15T22:34:21.048Z,3.10
2023-04-15T22:36:48.612Z,3.22
2023-04-15T22:39:16.615Z,3.72
2023-04-15T22:41:44.766Z,3.95
2023-04-15T22:44:12.779Z,3.53
2023-04-15T22:46:40.620Z,3.42
2023-04-15T22:49:09.448Z,3.83
2023-04-15T22:51:38.309Z,3.45
2023-04-15T22:56:33.271Z,3.22
2023-04-15T22:59:00.779Z,2.78
2023-04-15T23:01:28.328Z,3.70
2023-04-15T23:04:05.175Z,3.50
2023-04-15T23:06:34.015Z,3.72
2023-04-15T23:09:02.975Z,4.00
2023-04-15T23:11:30.522Z,3.75
2023-04-15T23:13:58.199Z,3.33
2023-04-15T23:16:25.946Z,3.42
2023-04-15T23:18:53.445Z,3.60
2023-04-15T23:21:20.999Z,4.10
2023-04-15T23:23:48.466Z,2.30
2023-04-15T23:26:17.290Z,3.70
2023-04-15T23:33:41.069Z,3.22
2023-04-15T23:36:08.679Z,4.15
2023-04-15T23:38:36.168Z,4.38
2023-04-15T23:41:03.654Z,4.38
2023-04-15T23:43:32.493Z,4.30
2023-04-15T23:46:00.020Z,4.07
2023-04-15T23:48:27.488Z,3.47
2023-04-15T23:50:54.922Z,3.92
2023-04-15T23:53:22.512Z,3.83
2023-04-15T23:55:50.064Z,3.45
2023-04-15T23:58:17.506Z,3.53
